DLH5WE EDDF-EGBB
Flight info
| Callsign | DLH5WE |
|---|---|
| Flight time | 1h 10m |
| Altitude | 38000 |
| Route | OBOKA3W/25C OBOKA Z29 TORNU DCT GALSO Q63 ERING L179 LAM L610 HEMEL |
| Aircraft | A320/M-SDE3FGHIRWY/LB1 |
Departure
| Time | 2026-05-05 15:35 |
|---|---|
| Airport | Frankfurt Main Airport (EDDF) |
Arrival
| Time | 2026-05-05 16:45 |
|---|---|
| Airport | Birmingham Airport (EGBB) |
| Time | Latitude | Longitude | Altitude | Speed | Heading |
|---|---|---|---|---|---|
| 2026-05-05 14:57 | 50.04756 | 8.57464 | 361 ft | 0 kts | 46° |
| 2026-05-05 15:22 | 50.04752 | 8.57457 | 356 ft | 4 kts | 45° |
| 2026-05-05 15:23 | 50.04731 | 8.57430 | 361 ft | 4 kts | 31° |
| 2026-05-05 15:23 | 50.04707 | 8.57412 | 359 ft | 4 kts | 13° |
| 2026-05-05 15:23 | 50.04681 | 8.57409 | 359 ft | 4 kts | 349° |
| 2026-05-05 15:23 | 50.04657 | 8.57423 | 358 ft | 4 kts | 318° |
| 2026-05-05 15:24 | 50.04641 | 8.57447 | 365 ft | 4 kts | 319° |
| 2026-05-05 15:24 | 50.04619 | 8.57473 | 359 ft | 4 kts | 328° |
| 2026-05-05 15:24 | 50.04596 | 8.57493 | 358 ft | 4 kts | 336° |
| 2026-05-05 15:24 | 50.04576 | 8.57505 | 363 ft | 4 kts | 338° |
| 2026-05-05 15:25 | 50.04551 | 8.57521 | 363 ft | 4 kts | 337° |
| 2026-05-05 15:25 | 50.04541 | 8.57528 | 364 ft | 0 kts | 336° |
| 2026-05-05 15:27 | 50.04541 | 8.57527 | 364 ft | 1 kts | 336° |
| 2026-05-05 15:27 | 50.04583 | 8.57504 | 361 ft | 8 kts | 354° |
| 2026-05-05 15:27 | 50.04619 | 8.57536 | 358 ft | 5 kts | 55° |
| 2026-05-05 15:28 | 50.04625 | 8.57557 | 358 ft | 1 kts | 64° |
| 2026-05-05 15:28 | 50.04629 | 8.57569 | 358 ft | 7 kts | 65° |
| 2026-05-05 15:28 | 50.04671 | 8.57740 | 358 ft | 17 kts | 70° |
| 2026-05-05 15:29 | 50.04703 | 8.57880 | 364 ft | 11 kts | 71° |
| 2026-05-05 15:29 | 50.04690 | 8.57964 | 359 ft | 7 kts | 133° |
| 2026-05-05 15:29 | 50.04638 | 8.57999 | 364 ft | 9 kts | 159° |
| 2026-05-05 15:29 | 50.04576 | 8.58041 | 365 ft | 9 kts | 143° |
| 2026-05-05 15:30 | 50.04573 | 8.58142 | 369 ft | 10 kts | 72° |
| 2026-05-05 15:30 | 50.04596 | 8.58244 | 368 ft | 10 kts | 69° |
| 2026-05-05 15:30 | 50.04621 | 8.58344 | 371 ft | 11 kts | 68° |
| 2026-05-05 15:30 | 50.04652 | 8.58469 | 370 ft | 14 kts | 72° |
| 2026-05-05 15:31 | 50.04610 | 8.58586 | 369 ft | 15 kts | 154° |
| 2026-05-05 15:31 | 50.04518 | 8.58639 | 371 ft | 12 kts | 184° |
| 2026-05-05 15:31 | 50.04491 | 8.58602 | 371 ft | 0 kts | 244° |
| 2026-05-05 15:34 | 50.04489 | 8.58594 | 371 ft | 6 kts | 244° |
| 2026-05-05 15:34 | 50.04399 | 8.58223 | 368 ft | 74 kts | 251° |
| 2026-05-05 15:34 | 50.04145 | 8.57154 | 371 ft | 134 kts | 250° |
| 2026-05-05 15:34 | 50.03788 | 8.55659 | 792 ft | 146 kts | 249° |
| 2026-05-05 15:35 | 50.03446 | 8.54216 | 1661 ft | 141 kts | 249° |
| 2026-05-05 15:35 | 50.03081 | 8.52677 | 2119 ft | 161 kts | 249° |
| 2026-05-05 15:35 | 50.02676 | 8.50973 | 2616 ft | 176 kts | 246° |
| 2026-05-05 15:35 | 50.01979 | 8.49316 | 3071 ft | 193 kts | 223° |
| 2026-05-05 15:36 | 50.00800 | 8.48212 | 3651 ft | 203 kts | 199° |
| 2026-05-05 15:36 | 49.99402 | 8.47820 | 4495 ft | 205 kts | 189° |
| 2026-05-05 15:36 | 49.97983 | 8.47522 | 5330 ft | 207 kts | 189° |
| 2026-05-05 15:36 | 49.96547 | 8.47209 | 6170 ft | 209 kts | 190° |
| 2026-05-05 15:37 | 49.95104 | 8.46650 | 6778 ft | 224 kts | 197° |
| 2026-05-05 15:37 | 49.93540 | 8.45929 | 7301 ft | 242 kts | 198° |
| 2026-05-05 15:37 | 49.92012 | 8.44830 | 8094 ft | 249 kts | 214° |
| 2026-05-05 15:37 | 49.90733 | 8.43001 | 8998 ft | 254 kts | 231° |
| 2026-05-05 15:38 | 49.89780 | 8.40658 | 9883 ft | 259 kts | 237° |
| 2026-05-05 15:38 | 49.88977 | 8.38121 | 10688 ft | 266 kts | 250° |
| 2026-05-05 15:38 | 49.88617 | 8.35251 | 11326 ft | 282 kts | 265° |
| 2026-05-05 15:38 | 49.88884 | 8.32105 | 11637 ft | 311 kts | 288° |
| 2026-05-05 15:39 | 49.90043 | 8.29120 | 11924 ft | 338 kts | 308° |
| 2026-05-05 15:39 | 49.91601 | 8.26209 | 12162 ft | 361 kts | 309° |
| 2026-05-05 15:39 | 49.93260 | 8.23199 | 12755 ft | 371 kts | 309° |
| 2026-05-05 15:39 | 49.94957 | 8.20146 | 13464 ft | 377 kts | 310° |
| 2026-05-05 15:40 | 49.96682 | 8.17035 | 14148 ft | 381 kts | 309° |
| 2026-05-05 15:40 | 49.98416 | 8.13887 | 14804 ft | 385 kts | 309° |
| 2026-05-05 15:40 | 50.00162 | 8.10688 | 15449 ft | 389 kts | 309° |
| 2026-05-05 15:40 | 50.01915 | 8.07455 | 16097 ft | 393 kts | 309° |
| 2026-05-05 15:41 | 50.03685 | 8.04181 | 16735 ft | 398 kts | 309° |
| 2026-05-05 15:41 | 50.05475 | 8.00867 | 17371 ft | 402 kts | 309° |
| 2026-05-05 15:41 | 50.07287 | 7.97516 | 18013 ft | 407 kts | 309° |
| 2026-05-05 15:41 | 50.09120 | 7.94126 | 18596 ft | 411 kts | 309° |
| 2026-05-05 15:42 | 50.10966 | 7.90710 | 19179 ft | 414 kts | 309° |
| 2026-05-05 15:42 | 50.12828 | 7.87258 | 19755 ft | 418 kts | 309° |
| 2026-05-05 15:42 | 50.14700 | 7.83775 | 20317 ft | 421 kts | 308° |
| 2026-05-05 15:42 | 50.16567 | 7.80294 | 20871 ft | 424 kts | 309° |
| 2026-05-05 15:43 | 50.18462 | 7.76751 | 21483 ft | 427 kts | 308° |
| 2026-05-05 15:43 | 50.20369 | 7.73180 | 22042 ft | 430 kts | 308° |
| 2026-05-05 15:43 | 50.22293 | 7.69582 | 22553 ft | 433 kts | 308° |
| 2026-05-05 15:43 | 50.24232 | 7.65963 | 23046 ft | 437 kts | 308° |
| 2026-05-05 15:44 | 50.26188 | 7.62306 | 23487 ft | 440 kts | 308° |
| 2026-05-05 15:44 | 50.28150 | 7.58628 | 23878 ft | 443 kts | 308° |
| 2026-05-05 15:44 | 50.30131 | 7.54900 | 24262 ft | 445 kts | 308° |
| 2026-05-05 15:44 | 50.32114 | 7.51153 | 24667 ft | 448 kts | 308° |
| 2026-05-05 15:45 | 50.34108 | 7.47379 | 25074 ft | 451 kts | 308° |
| 2026-05-05 15:45 | 50.36114 | 7.43581 | 25422 ft | 454 kts | 308° |
| 2026-05-05 15:45 | 50.38131 | 7.39761 | 25782 ft | 456 kts | 308° |
| 2026-05-05 15:45 | 50.40163 | 7.35916 | 26130 ft | 459 kts | 308° |
| 2026-05-05 15:46 | 50.42202 | 7.32048 | 26482 ft | 461 kts | 308° |
| 2026-05-05 15:46 | 50.44252 | 7.28160 | 26805 ft | 463 kts | 308° |
| 2026-05-05 15:46 | 50.46310 | 7.24248 | 27127 ft | 466 kts | 308° |
| 2026-05-05 15:46 | 50.48376 | 7.20316 | 27426 ft | 468 kts | 308° |
| 2026-05-05 15:47 | 50.50450 | 7.16366 | 27722 ft | 470 kts | 308° |
| 2026-05-05 15:47 | 50.51827 | 7.13736 | 27927 ft | 471 kts | 307° |
| 2026-05-05 15:47 | 50.54616 | 7.08394 | 28301 ft | 474 kts | 307° |
| 2026-05-05 15:47 | 50.56710 | 7.04380 | 28573 ft | 476 kts | 307° |
| 2026-05-05 15:48 | 50.58817 | 7.00335 | 28832 ft | 478 kts | 307° |
| 2026-05-05 15:48 | 50.60924 | 6.96278 | 29122 ft | 479 kts | 307° |
| 2026-05-05 15:48 | 50.63027 | 6.92217 | 29423 ft | 479 kts | 307° |
| 2026-05-05 15:48 | 50.65128 | 6.88160 | 29827 ft | 477 kts | 307° |
| 2026-05-05 15:49 | 50.67229 | 6.84108 | 30132 ft | 476 kts | 307° |
| 2026-05-05 15:49 | 50.69324 | 6.80068 | 30415 ft | 476 kts | 306° |
| 2026-05-05 15:49 | 50.71415 | 6.76026 | 30691 ft | 475 kts | 306° |
| 2026-05-05 15:49 | 50.73504 | 6.71973 | 30976 ft | 475 kts | 306° |
| 2026-05-05 15:50 | 50.75584 | 6.67922 | 31234 ft | 475 kts | 306° |
| 2026-05-05 15:50 | 50.77665 | 6.63861 | 31500 ft | 475 kts | 306° |
| 2026-05-05 15:50 | 50.79718 | 6.59852 | 31765 ft | 476 kts | 306° |
| 2026-05-05 15:50 | 50.81830 | 6.55726 | 32075 ft | 475 kts | 306° |
| 2026-05-05 15:51 | 50.83905 | 6.51672 | 32408 ft | 474 kts | 305° |
| 2026-05-05 15:51 | 50.85951 | 6.47669 | 32692 ft | 474 kts | 305° |
| 2026-05-05 15:51 | 50.88018 | 6.43608 | 32975 ft | 474 kts | 305° |
| 2026-05-05 15:51 | 50.90083 | 6.39542 | 33278 ft | 474 kts | 305° |
| 2026-05-05 15:52 | 50.92148 | 6.35470 | 33565 ft | 474 kts | 304° |
| 2026-05-05 15:52 | 50.94219 | 6.31384 | 33843 ft | 474 kts | 304° |
| 2026-05-05 15:52 | 50.96286 | 6.27307 | 34089 ft | 474 kts | 304° |
| 2026-05-05 15:52 | 50.98349 | 6.23233 | 34353 ft | 474 kts | 304° |
| 2026-05-05 15:53 | 51.00414 | 6.19149 | 34633 ft | 473 kts | 304° |
| 2026-05-05 15:53 | 51.02462 | 6.15083 | 34918 ft | 472 kts | 304° |
| 2026-05-05 15:53 | 51.04503 | 6.11018 | 35252 ft | 468 kts | 305° |
| 2026-05-05 15:53 | 51.06524 | 6.06978 | 35556 ft | 466 kts | 305° |
| 2026-05-05 15:54 | 51.08541 | 6.02950 | 35808 ft | 465 kts | 305° |
| 2026-05-05 15:54 | 51.10556 | 5.98923 | 36047 ft | 464 kts | 305° |
| 2026-05-05 15:54 | 51.12566 | 5.94900 | 36292 ft | 464 kts | 305° |
| 2026-05-05 15:54 | 51.13894 | 5.92240 | 36465 ft | 463 kts | 305° |
| 2026-05-05 15:55 | 51.15898 | 5.88226 | 36720 ft | 463 kts | 305° |
| 2026-05-05 15:55 | 51.17734 | 5.84040 | 36958 ft | 459 kts | 296° |
| 2026-05-05 15:55 | 51.19154 | 5.79519 | 37166 ft | 454 kts | 288° |
| 2026-05-05 15:55 | 51.20217 | 5.74802 | 37412 ft | 451 kts | 285° |
| 2026-05-05 15:56 | 51.21242 | 5.70091 | 37663 ft | 449 kts | 286° |
| 2026-05-05 15:56 | 51.22267 | 5.65389 | 37836 ft | 449 kts | 286° |
| 2026-05-05 15:56 | 51.23296 | 5.60678 | 37876 ft | 449 kts | 286° |
| 2026-05-05 15:57 | 51.25351 | 5.51263 | 37861 ft | 449 kts | 286° |
| 2026-05-05 15:57 | 51.27395 | 5.41840 | 37869 ft | 449 kts | 286° |
| 2026-05-05 15:58 | 51.29428 | 5.32408 | 37876 ft | 449 kts | 285° |
| 2026-05-05 15:58 | 51.31449 | 5.22968 | 37881 ft | 449 kts | 285° |
| 2026-05-05 15:59 | 51.33468 | 5.13515 | 37900 ft | 449 kts | 285° |
| 2026-05-05 15:59 | 51.35485 | 5.04040 | 37894 ft | 450 kts | 285° |
| 2026-05-05 16:00 | 51.37491 | 4.94559 | 37910 ft | 450 kts | 285° |
| 2026-05-05 16:00 | 51.39489 | 4.85054 | 37901 ft | 450 kts | 285° |
| 2026-05-05 16:01 | 51.41482 | 4.75542 | 37923 ft | 450 kts | 286° |
| 2026-05-05 16:01 | 51.43461 | 4.66047 | 37909 ft | 449 kts | 286° |
| 2026-05-05 16:02 | 51.45429 | 4.56552 | 37907 ft | 448 kts | 285° |
| 2026-05-05 16:02 | 51.47383 | 4.47107 | 37908 ft | 449 kts | 285° |
| 2026-05-05 16:03 | 51.49338 | 4.37600 | 37911 ft | 449 kts | 285° |
| 2026-05-05 16:03 | 51.51284 | 4.28091 | 37912 ft | 448 kts | 285° |
| 2026-05-05 16:04 | 51.53226 | 4.18590 | 37911 ft | 448 kts | 285° |
| 2026-05-05 16:04 | 51.55150 | 4.09088 | 37908 ft | 447 kts | 285° |
| 2026-05-05 16:05 | 51.57067 | 3.99576 | 37911 ft | 447 kts | 285° |
| 2026-05-05 16:05 | 51.58974 | 3.90060 | 37909 ft | 447 kts | 285° |
| 2026-05-05 16:06 | 51.60869 | 3.80537 | 37921 ft | 447 kts | 285° |
| 2026-05-05 16:06 | 51.62763 | 3.71010 | 37917 ft | 447 kts | 284° |
| 2026-05-05 16:07 | 51.64651 | 3.61483 | 37925 ft | 446 kts | 285° |
| 2026-05-05 16:07 | 51.66515 | 3.51954 | 37927 ft | 446 kts | 284° |
| 2026-05-05 16:08 | 51.68368 | 3.42475 | 37926 ft | 446 kts | 285° |
| 2026-05-05 16:08 | 51.70233 | 3.32933 | 37940 ft | 446 kts | 283° |
| 2026-05-05 16:09 | 51.72085 | 3.23379 | 37939 ft | 446 kts | 283° |
| 2026-05-05 16:09 | 51.72865 | 3.13572 | 37935 ft | 440 kts | 265° |
| 2026-05-05 16:10 | 51.72127 | 3.03814 | 37931 ft | 438 kts | 260° |
| 2026-05-05 16:10 | 51.71277 | 2.94073 | 37935 ft | 439 kts | 260° |
| 2026-05-05 16:11 | 51.70424 | 2.84328 | 37944 ft | 439 kts | 259° |
| 2026-05-05 16:12 | 51.68687 | 2.64834 | 37951 ft | 439 kts | 259° |
| 2026-05-05 16:13 | 51.66499 | 2.40499 | 37958 ft | 439 kts | 261° |
| 2026-05-05 16:13 | 51.65601 | 2.30772 | 37935 ft | 439 kts | 259° |
| 2026-05-05 16:14 | 51.63778 | 2.11385 | 37929 ft | 439 kts | 259° |
| 2026-05-05 16:15 | 51.61970 | 1.91907 | 37940 ft | 440 kts | 259° |
| 2026-05-05 16:16 | 51.60136 | 1.72366 | 37912 ft | 443 kts | 259° |
| 2026-05-05 16:17 | 51.59215 | 1.57578 | 37917 ft | 447 kts | 272° |
| 2026-05-05 16:18 | 51.59886 | 1.42599 | 37936 ft | 448 kts | 272° |
| 2026-05-05 16:19 | 51.60498 | 1.27594 | 37945 ft | 448 kts | 272° |
| 2026-05-05 16:19 | 51.61116 | 1.12562 | 37952 ft | 449 kts | 272° |
| 2026-05-05 16:20 | 51.61901 | 0.92569 | 37993 ft | 449 kts | 271° |
| 2026-05-05 16:22 | 51.62823 | 0.67522 | 37996 ft | 448 kts | 272° |
| 2026-05-05 16:23 | 51.63542 | 0.47484 | 37995 ft | 448 kts | 271° |
| 2026-05-05 16:23 | 51.64047 | 0.32466 | 37964 ft | 448 kts | 271° |
| 2026-05-05 16:24 | 51.64369 | 0.22454 | 37914 ft | 448 kts | 271° |
| 2026-05-05 16:24 | 51.65433 | 0.12516 | 36050 ft | 456 kts | 288° |
| 2026-05-05 16:25 | 51.66668 | 0.07820 | 35154 ft | 456 kts | 292° |
| 2026-05-05 16:25 | 51.69306 | -0.01450 | 33338 ft | 454 kts | 292° |
| 2026-05-05 16:25 | 51.70610 | -0.06104 | 32124 ft | 457 kts | 291° |
| 2026-05-05 16:26 | 51.73246 | -0.15556 | 29511 ft | 466 kts | 291° |
| 2026-05-05 16:26 | 51.75790 | -0.24704 | 26673 ft | 471 kts | 292° |
| 2026-05-05 16:27 | 51.77123 | -0.29517 | 25518 ft | 467 kts | 292° |
| 2026-05-05 16:27 | 51.78409 | -0.34156 | 24453 ft | 463 kts | 294° |
| 2026-05-05 16:27 | 51.79997 | -0.38642 | 23465 ft | 458 kts | 304° |
| 2026-05-05 16:27 | 51.82049 | -0.42531 | 22456 ft | 453 kts | 314° |
| 2026-05-05 16:28 | 51.84481 | -0.45717 | 21515 ft | 449 kts | 325° |
| 2026-05-05 16:28 | 51.87130 | -0.48322 | 20818 ft | 441 kts | 328° |
| 2026-05-05 16:28 | 51.89723 | -0.50830 | 20415 ft | 428 kts | 328° |
| 2026-05-05 16:28 | 51.92256 | -0.53289 | 20043 ft | 422 kts | 328° |
| 2026-05-05 16:29 | 51.94764 | -0.55732 | 19944 ft | 420 kts | 327° |
| 2026-05-05 16:29 | 51.97276 | -0.58191 | 19967 ft | 421 kts | 328° |
| 2026-05-05 16:29 | 51.99779 | -0.60644 | 19633 ft | 420 kts | 328° |
| 2026-05-05 16:29 | 52.02307 | -0.63122 | 18460 ft | 428 kts | 328° |
| 2026-05-05 16:30 | 52.04855 | -0.65620 | 17734 ft | 424 kts | 328° |
| 2026-05-05 16:30 | 52.07334 | -0.68055 | 17383 ft | 411 kts | 328° |
| 2026-05-05 16:30 | 52.09757 | -0.70439 | 16968 ft | 405 kts | 328° |
| 2026-05-05 16:30 | 52.12129 | -0.72774 | 16559 ft | 402 kts | 328° |
| 2026-05-05 16:31 | 52.14512 | -0.75122 | 16152 ft | 399 kts | 328° |
| 2026-05-05 16:31 | 52.16881 | -0.77460 | 15744 ft | 397 kts | 327° |
| 2026-05-05 16:31 | 52.19231 | -0.79785 | 15342 ft | 394 kts | 327° |
| 2026-05-05 16:31 | 52.21498 | -0.82272 | 14943 ft | 389 kts | 319° |
| 2026-05-05 16:32 | 52.23393 | -0.85390 | 14553 ft | 385 kts | 307° |
| 2026-05-05 16:32 | 52.24838 | -0.89045 | 14159 ft | 382 kts | 296° |
| 2026-05-05 16:32 | 52.25792 | -0.93050 | 13771 ft | 378 kts | 284° |
| 2026-05-05 16:32 | 52.26381 | -0.97225 | 13366 ft | 376 kts | 282° |
| 2026-05-05 16:33 | 52.26950 | -1.01372 | 12876 ft | 373 kts | 282° |
| 2026-05-05 16:33 | 52.27526 | -1.05555 | 11673 ft | 383 kts | 283° |
| 2026-05-05 16:33 | 52.28102 | -1.09763 | 10448 ft | 375 kts | 283° |
| 2026-05-05 16:33 | 52.28664 | -1.13876 | 8955 ft | 369 kts | 283° |
| 2026-05-05 16:34 | 52.29032 | -1.16578 | 7939 ft | 365 kts | 283° |
| 2026-05-05 16:34 | 52.29577 | -1.20598 | 6458 ft | 360 kts | 283° |
| 2026-05-05 16:34 | 52.30109 | -1.24570 | 5198 ft | 351 kts | 283° |
| 2026-05-05 16:34 | 52.30599 | -1.28271 | 4947 ft | 315 kts | 284° |
| 2026-05-05 16:35 | 52.31037 | -1.31569 | 4955 ft | 282 kts | 284° |
| 2026-05-05 16:35 | 52.31443 | -1.34607 | 5001 ft | 269 kts | 284° |
| 2026-05-05 16:35 | 52.31832 | -1.37507 | 5003 ft | 252 kts | 284° |
| 2026-05-05 16:35 | 52.32191 | -1.40197 | 5002 ft | 234 kts | 285° |
| 2026-05-05 16:36 | 52.32749 | -1.42642 | 5010 ft | 242 kts | 308° |
| 2026-05-05 16:36 | 52.34070 | -1.44437 | 5006 ft | 254 kts | 337° |
| 2026-05-05 16:36 | 52.35803 | -1.45012 | 5005 ft | 257 kts | 358° |
| 2026-05-05 16:36 | 52.37600 | -1.45059 | 5001 ft | 258 kts | 2° |
| 2026-05-05 16:37 | 52.39340 | -1.44411 | 4981 ft | 257 kts | 27° |
| 2026-05-05 16:37 | 52.40676 | -1.42539 | 4575 ft | 255 kts | 55° |
| 2026-05-05 16:37 | 52.41307 | -1.39831 | 4108 ft | 257 kts | 77° |
| 2026-05-05 16:37 | 52.41581 | -1.36933 | 3984 ft | 258 kts | 80° |
| 2026-05-05 16:38 | 52.41536 | -1.33987 | 3991 ft | 263 kts | 103° |
| 2026-05-05 16:38 | 52.40641 | -1.31375 | 3996 ft | 268 kts | 133° |
| 2026-05-05 16:38 | 52.39076 | -1.29751 | 3996 ft | 271 kts | 161° |
| 2026-05-05 16:38 | 52.37214 | -1.29386 | 3996 ft | 272 kts | 186° |
| 2026-05-05 16:39 | 52.35419 | -1.30341 | 4001 ft | 272 kts | 212° |
| 2026-05-05 16:39 | 52.34050 | -1.32417 | 4003 ft | 269 kts | 238° |
| 2026-05-05 16:39 | 52.33341 | -1.35199 | 4001 ft | 266 kts | 262° |
| 2026-05-05 16:39 | 52.33346 | -1.38152 | 4002 ft | 252 kts | 279° |
| 2026-05-05 16:40 | 52.33530 | -1.40939 | 4002 ft | 244 kts | 278° |
| 2026-05-05 16:40 | 52.33709 | -1.43684 | 3999 ft | 242 kts | 278° |
| 2026-05-05 16:40 | 52.33880 | -1.46312 | 3999 ft | 227 kts | 279° |
| 2026-05-05 16:40 | 52.34040 | -1.48816 | 3988 ft | 212 kts | 278° |
| 2026-05-05 16:41 | 52.34190 | -1.51161 | 3744 ft | 208 kts | 278° |
| 2026-05-05 16:41 | 52.34341 | -1.53510 | 3489 ft | 207 kts | 279° |
| 2026-05-05 16:41 | 52.34490 | -1.55850 | 3208 ft | 206 kts | 279° |
| 2026-05-05 16:41 | 52.34640 | -1.58175 | 2938 ft | 205 kts | 279° |
| 2026-05-05 16:42 | 52.34790 | -1.60497 | 2644 ft | 205 kts | 280° |
| 2026-05-05 16:42 | 52.35193 | -1.62649 | 2516 ft | 191 kts | 301° |
| 2026-05-05 16:42 | 52.35979 | -1.64318 | 2405 ft | 182 kts | 321° |
| 2026-05-05 16:42 | 52.36965 | -1.65471 | 2233 ft | 168 kts | 328° |
| 2026-05-05 16:43 | 52.37900 | -1.66504 | 2008 ft | 157 kts | 328° |
| 2026-05-05 16:43 | 52.38783 | -1.67482 | 1793 ft | 150 kts | 328° |
| 2026-05-05 16:43 | 52.39625 | -1.68414 | 1577 ft | 143 kts | 328° |
| 2026-05-05 16:43 | 52.40421 | -1.69297 | 1415 ft | 133 kts | 329° |
| 2026-05-05 16:44 | 52.41168 | -1.70125 | 1227 ft | 127 kts | 328° |
| 2026-05-05 16:44 | 52.41901 | -1.70936 | 1041 ft | 127 kts | 327° |
| 2026-05-05 16:44 | 52.42627 | -1.71737 | 861 ft | 125 kts | 327° |
| 2026-05-05 16:44 | 52.43341 | -1.72533 | 701 ft | 125 kts | 327° |
| 2026-05-05 16:45 | 52.44055 | -1.73334 | 506 ft | 123 kts | 327° |
| 2026-05-05 16:45 | 52.44764 | -1.74121 | 335 ft | 121 kts | 327° |
| 2026-05-05 16:45 | 52.45327 | -1.74737 | 326 ft | 59 kts | 325° |
| 2026-05-05 16:45 | 52.45555 | -1.74992 | 326 ft | 35 kts | 326° |
| 2026-05-05 16:46 | 52.45741 | -1.75198 | 325 ft | 30 kts | 326° |
| 2026-05-05 16:46 | 52.45914 | -1.75382 | 325 ft | 29 kts | 327° |
| 2026-05-05 16:46 | 52.46071 | -1.75557 | 318 ft | 19 kts | 323° |
| 2026-05-05 16:46 | 52.46161 | -1.75597 | 315 ft | 15 kts | 38° |
| 2026-05-05 16:47 | 52.46218 | -1.75449 | 314 ft | 13 kts | 78° |
| 2026-05-05 16:47 | 52.46164 | -1.75342 | 314 ft | 12 kts | 144° |
| 2026-05-05 16:47 | 52.46109 | -1.75277 | 318 ft | 7 kts | 144° |
| 2026-05-05 16:47 | 52.46078 | -1.75239 | 320 ft | 5 kts | 144° |
| 2026-05-05 16:48 | 52.45963 | -1.75107 | 324 ft | 31 kts | 147° |
| 2026-05-05 16:48 | 52.45813 | -1.74945 | 323 ft | 22 kts | 146° |
| 2026-05-05 16:48 | 52.45705 | -1.74825 | 326 ft | 17 kts | 146° |
| 2026-05-05 16:48 | 52.45605 | -1.74717 | 326 ft | 17 kts | 147° |
| 2026-05-05 16:49 | 52.45511 | -1.74614 | 326 ft | 16 kts | 145° |
| 2026-05-05 16:49 | 52.45448 | -1.74490 | 328 ft | 13 kts | 116° |
| 2026-05-05 16:49 | 52.45412 | -1.74373 | 332 ft | 11 kts | 117° |
| 2026-05-05 16:49 | 52.45374 | -1.74250 | 330 ft | 17 kts | 117° |
| 2026-05-05 16:50 | 52.45319 | -1.74078 | 329 ft | 17 kts | 117° |
| 2026-05-05 16:50 | 52.45339 | -1.73913 | 328 ft | 16 kts | 54° |
| 2026-05-05 16:50 | 52.45374 | -1.73820 | 330 ft | 6 kts | 76° |